Time;durP1;ratioP1;P1;durP2;ratioP2;P2;SDS_P1;SDS_P2;PMS_P1;PMS_P2;Temp;Humidity;BMP_temperature;BMP_pressure;BME280_temperature;BME280_humidity;BME280_pressure;Samples;Min_cycle;Max_cycle;Signal;HPM_P1;HPM_P2
2023/03/29 00:01:41;;;;;;;6.13;2.10;;;;;;;;;;4986266;28;20117;-61
2023/03/29 00:04:08;;;;;;;4.90;2.17;;;;;;;;;;4986906;28;20044;-60
2023/03/29 00:06:35;;;;;;;5.35;2.10;;;;;;;;;;4985735;28;20193;-61
2023/03/29 00:09:04;;;;;;;6.75;1.90;;;;;;;;;;4986500;28;20046;-60
2023/03/29 00:11:31;;;;;;;5.28;2.38;;;;;;;;;;4986624;28;20038;-61
2023/03/29 00:13:57;;;;;;;9.88;2.42;;;;;;;;;;4986716;28;20096;-61
2023/03/29 00:16:24;;;;;;;5.43;2.03;;;;;;;;;;4984920;28;20042;-60
2023/03/29 00:18:51;;;;;;;5.15;1.90;;;;;;;;;;4985879;28;20108;-61
2023/03/29 00:21:17;;;;;;;5.80;1.50;;;;;;;;;;4986124;28;20034;-60
2023/03/29 00:23:44;;;;;;;6.75;1.83;;;;;;;;;;4985685;28;20041;-60
2023/03/29 00:26:11;;;;;;;8.40;1.80;;;;;;;;;;4986607;28;20933;-61
2023/03/29 00:28:37;;;;;;;10.50;2.55;;;;;;;;;;4985082;28;20113;-64
2023/03/29 00:31:08;;;;;;;9.27;1.80;;;;;;;;;;4985670;28;20549;-58
2023/03/29 00:33:35;;;;;;;4.70;1.80;;;;;;;;;;4986396;28;20046;-60
2023/03/29 00:36:03;;;;;;;4.55;1.83;;;;;;;;;;4987350;28;20057;-60
2023/03/29 00:38:30;;;;;;;5.40;2.15;;;;;;;;;;4984955;28;20840;-61
2023/03/29 00:40:56;;;;;;;5.00;2.00;;;;;;;;;;4978923;28;20058;-60
2023/03/29 00:43:23;;;;;;;5.22;2.13;;;;;;;;;;4987678;28;20463;-60
2023/03/29 00:45:50;;;;;;;7.47;2.50;;;;;;;;;;4987527;28;20821;-60
2023/03/29 00:48:18;;;;;;;8.65;2.38;;;;;;;;;;4985299;28;20117;-60
2023/03/29 00:50:48;;;;;;;6.07;2.55;;;;;;;;;;4987079;28;20038;-60
2023/03/29 00:53:18;;;;;;;6.43;2.30;;;;;;;;;;4984435;28;20177;-60
2023/03/29 00:55:51;;;;;;;8.80;2.63;;;;;;;;;;4985895;28;20065;-59
2023/03/29 00:58:20;;;;;;;8.15;2.72;;;;;;;;;;4986478;28;20044;-60
2023/03/29 01:00:54;;;;;;;9.63;2.63;;;;;;;;;;4985929;28;20066;-61
2023/03/29 01:03:24;;;;;;;9.07;2.50;;;;;;;;;;4986525;28;20038;-61
2023/03/29 01:05:59;;;;;;;5.97;2.28;;;;;;;;;;4988443;28;20046;-60
2023/03/29 01:08:34;;;;;;;9.32;2.72;;;;;;;;;;4985471;28;20038;-61
2023/03/29 01:11:30;;;;;;;4.63;2.20;;;;;;;;;;4987683;28;20541;-60
2023/03/29 01:14:07;;;;;;;7.25;1.98;;;;;;;;;;4965947;28;20042;-60
2023/03/29 01:16:38;;;;;;;8.25;2.78;;;;;;;;;;4985783;28;20608;-60
2023/03/29 01:19:07;;;;;;;6.20;2.25;;;;;;;;;;4985334;28;20045;-59
2023/03/29 01:21:46;;;;;;;8.75;1.90;;;;;;;;;;4986771;28;20046;-59
2023/03/29 01:24:40;;;;;;;5.43;1.80;;;;;;;;;;4985990;28;20438;-60
2023/03/29 01:27:07;;;;;;;;;;;;;;;;;;4983585;28;20092;-60
2023/03/29 01:29:40;;;;;;;8.13;2.13;;;;;;;;;;4984220;28;19922;-60
2023/03/29 01:32:11;;;;;;;13.98;2.33;;;;;;;;;;4986136;28;20035;-61
2023/03/29 01:34:50;;;;;;;4.38;1.70;;;;;;;;;;4984762;28;20049;-62
2023/03/29 01:37:36;;;;;;;7.18;2.08;;;;;;;;;;4986743;28;20391;-60
2023/03/29 01:40:06;;;;;;;3.70;1.80;;;;;;;;;;4984272;28;20160;-60
2023/03/29 01:42:41;;;;;;;5.38;2.15;;;;;;;;;;4984340;28;20573;-60
2023/03/29 01:45:07;;;;;;;6.70;2.15;;;;;;;;;;4986858;28;20169;-60
2023/03/29 01:47:42;;;;;;;5.75;2.05;;;;;;;;;;4984388;28;20045;-59
2023/03/29 01:50:09;;;;;;;5.20;1.80;;;;;;;;;;4984917;28;20069;-59
2023/03/29 01:52:38;;;;;;;5.18;2.10;;;;;;;;;;4985165;28;20038;-60
2023/03/29 01:55:08;;;;;;;7.63;1.98;;;;;;;;;;4984999;28;20042;-61
2023/03/29 01:57:36;;;;;;;9.57;2.28;;;;;;;;;;4984980;28;20490;-60
2023/03/29 02:00:07;;;;;;;5.10;2.00;;;;;;;;;;4984619;28;20044;-60
2023/03/29 02:02:33;;;;;;;5.25;2.03;;;;;;;;;;4984797;28;20085;-63
2023/03/29 02:05:00;;;;;;;8.27;2.10;;;;;;;;;;4973111;28;20044;-60
2023/03/29 02:07:30;;;;;;;5.13;2.00;;;;;;;;;;4985263;28;20062;-60
2023/03/29 02:09:57;;;;;;;6.35;2.17;;;;;;;;;;4988040;28;20038;-59
2023/03/29 02:12:24;;;;;;;6.38;2.45;;;;;;;;;;4989090;28;20562;-62
2023/03/29 02:14:51;;;;;;;6.72;2.13;;;;;;;;;;4988354;28;20120;-60
2023/03/29 02:17:19;;;;;;;9.75;2.58;;;;;;;;;;4989592;28;20694;-60
2023/03/29 02:19:52;;;;;;;5.30;2.90;;;;;;;;;;4988196;28;20042;-59
2023/03/29 02:22:22;;;;;;;8.55;2.92;;;;;;;;;;4989693;28;20045;-59
2023/03/29 02:24:50;;;;;;;10.32;3.13;;;;;;;;;;4986079;28;20107;-59
2023/03/29 02:27:16;;;;;;;9.60;3.20;;;;;;;;;;4988836;28;20455;-61
2023/03/29 02:29:45;;;;;;;6.63;2.97;;;;;;;;;;4988021;28;20346;-61
2023/03/29 02:32:26;;;;;;;9.27;3.08;;;;;;;;;;4988280;28;20085;-60
2023/03/29 02:34:58;;;;;;;6.40;3.00;;;;;;;;;;4988376;28;20049;-61
2023/03/29 02:37:28;;;;;;;14.45;3.17;;;;;;;;;;4987343;28;20561;-63
2023/03/29 02:39:56;;;;;;;8.43;3.05;;;;;;;;;;4987544;28;20117;-63
2023/03/29 02:42:24;;;;;;;9.50;3.17;;;;;;;;;;4988582;28;20046;-62
2023/03/29 02:44:52;;;;;;;6.30;2.22;;;;;;;;;;4987686;28;20473;-60
2023/03/29 02:47:28;;;;;;;7.28;2.60;;;;;;;;;;4987201;28;20443;-60
2023/03/29 02:49:55;;;;;;;5.85;2.45;;;;;;;;;;4988090;28;20069;-63
2023/03/29 02:52:23;;;;;;;5.90;2.00;;;;;;;;;;4989265;28;20046;-61
2023/03/29 02:54:51;;;;;;;6.30;2.40;;;;;;;;;;4986460;28;20046;-60
2023/03/29 02:57:20;;;;;;;5.00;2.47;;;;;;;;;;4987992;28;20054;-62
2023/03/29 02:59:47;;;;;;;7.70;2.40;;;;;;;;;;4986796;28;20513;-62
2023/03/29 03:02:16;;;;;;;7.03;2.20;;;;;;;;;;4987907;28;20617;-62
2023/03/29 03:04:43;;;;;;;8.23;2.03;;;;;;;;;;4985622;28;20046;-61
2023/03/29 03:07:10;;;;;;;9.82;2.17;;;;;;;;;;4987000;28;20125;-61
2023/03/29 03:09:37;;;;;;;7.13;1.85;;;;;;;;;;4987237;28;20729;-61
2023/03/29 03:12:04;;;;;;;13.95;2.45;;;;;;;;;;4987847;28;20065;-62
2023/03/29 03:14:30;;;;;;;5.18;2.22;;;;;;;;;;4985612;28;20465;-62
2023/03/29 03:16:57;;;;;;;7.07;2.30;;;;;;;;;;4987930;28;20104;-62
2023/03/29 03:19:23;;;;;;;7.00;2.60;;;;;;;;;;4985519;28;20050;-63
2023/03/29 03:21:50;;;;;;;9.30;2.58;;;;;;;;;;4986653;28;20084;-63
2023/03/29 03:24:17;;;;;;;6.35;3.10;;;;;;;;;;4986670;28;20042;-62
2023/03/29 03:26:45;;;;;;;6.78;2.80;;;;;;;;;;4986597;28;20045;-60
2023/03/29 03:29:12;;;;;;;10.20;3.22;;;;;;;;;;4986360;28;20038;-62
2023/03/29 03:31:41;;;;;;;8.05;3.28;;;;;;;;;;4987025;28;20383;-63
2023/03/29 03:34:08;;;;;;;8.30;3.85;;;;;;;;;;4987688;28;20108;-61
2023/03/29 03:36:35;;;;;;;9.63;3.03;;;;;;;;;;4985154;28;21418;-63
2023/03/29 03:39:04;;;;;;;13.15;3.13;;;;;;;;;;4986819;28;20042;-62
2023/03/29 03:41:31;;;;;;;25.75;3.83;;;;;;;;;;4986144;28;20042;-63
2023/03/29 03:43:58;;;;;;;11.93;3.92;;;;;;;;;;4986398;28;20035;-64
2023/03/29 03:46:25;;;;;;;14.90;4.90;;;;;;;;;;4985977;28;20129;-63
2023/03/29 03:48:51;;;;;;;12.68;4.20;;;;;;;;;;4986278;28;20054;-62
2023/03/29 03:51:18;;;;;;;8.40;3.00;;;;;;;;;;4987035;28;20042;-64
2023/03/29 03:53:45;;;;;;;10.70;3.42;;;;;;;;;;4989110;28;20045;-62
2023/03/29 03:56:12;;;;;;;10.63;3.53;;;;;;;;;;4986494;28;20046;-62
2023/03/29 03:58:39;;;;;;;7.85;3.30;;;;;;;;;;4985448;28;20038;-63
2023/03/29 04:01:07;;;;;;;8.48;3.47;;;;;;;;;;4986460;28;20035;-62
2023/03/29 04:03:34;;;;;;;7.70;3.10;;;;;;;;;;4986211;28;20101;-62
2023/03/29 04:06:02;;;;;;;9.68;3.30;;;;;;;;;;4986666;28;20037;-63
2023/03/29 04:08:29;;;;;;;8.77;2.90;;;;;;;;;;4985975;28;20050;-62
2023/03/29 04:10:57;;;;;;;13.30;3.42;;;;;;;;;;4985535;28;20090;-63
2023/03/29 04:13:24;;;;;;;9.23;3.40;;;;;;;;;;4985179;28;20042;-60
2023/03/29 04:15:55;;;;;;;8.20;3.33;;;;;;;;;;4986545;28;20116;-63
2023/03/29 04:18:22;;;;;;;7.78;3.28;;;;;;;;;;4985980;28;20037;-60
2023/03/29 04:20:49;;;;;;;11.43;3.85;;;;;;;;;;4986209;28;20120;-62
2023/03/29 04:23:16;;;;;;;9.82;3.65;;;;;;;;;;4987182;28;20046;-64
2023/03/29 04:25:43;;;;;;;13.15;3.80;;;;;;;;;;4985854;28;20065;-62
2023/03/29 04:28:11;;;;;;;13.63;4.05;;;;;;;;;;4985266;28;20519;-62
2023/03/29 04:30:37;;;;;;;14.88;4.10;;;;;;;;;;4984037;28;20149;-63
2023/03/29 04:33:04;;;;;;;11.73;4.32;;;;;;;;;;4986113;28;20052;-62
2023/03/29 04:35:31;;;;;;;12.32;4.60;;;;;;;;;;4984748;28;20040;-62
2023/03/29 04:37:57;;;;;;;14.90;4.32;;;;;;;;;;4986839;28;20041;-64
2023/03/29 04:40:24;;;;;;;8.40;3.50;;;;;;;;;;4985114;28;20459;-64
2023/03/29 04:42:51;;;;;;;17.02;4.03;;;;;;;;;;4985854;28;20212;-64
2023/03/29 04:45:18;;;;;;;9.85;3.95;;;;;;;;;;4986987;28;20057;-64
2023/03/29 04:47:45;;;;;;;9.80;4.22;;;;;;;;;;4985950;28;20041;-65
2023/03/29 04:50:12;;;;;;;10.05;4.10;;;;;;;;;;4986908;28;20525;-63
2023/03/29 04:52:39;;;;;;;12.95;4.68;;;;;;;;;;4985828;28;20047;-63
2023/03/29 04:55:06;;;;;;;17.98;4.93;;;;;;;;;;4986059;28;20119;-63
2023/03/29 04:57:33;;;;;;;17.48;4.38;;;;;;;;;;4985813;28;20121;-63
2023/03/29 05:00:00;;;;;;;10.82;4.47;;;;;;;;;;4984972;28;20026;-62
2023/03/29 05:02:31;;;;;;;17.95;4.68;;;;;;;;;;4984139;28;20037;-62
2023/03/29 05:04:57;;;;;;;22.48;5.15;;;;;;;;;;4985049;28;20133;-62
2023/03/29 05:07:24;;;;;;;14.43;5.15;;;;;;;;;;4985473;28;20571;-60
2023/03/29 05:09:50;;;;;;;10.10;5.20;;;;;;;;;;4985418;28;20042;-62
2023/03/29 05:12:17;;;;;;;9.90;4.72;;;;;;;;;;4984763;28;20070;-61
2023/03/29 05:14:44;;;;;;;12.32;5.18;;;;;;;;;;4984071;28;20073;-61
2023/03/29 05:17:11;;;;;;;11.15;4.57;;;;;;;;;;4984959;28;20055;-61
2023/03/29 05:19:37;;;;;;;14.70;5.38;;;;;;;;;;4985177;28;20042;-61
2023/03/29 05:22:04;;;;;;;18.15;4.72;;;;;;;;;;4985102;28;20042;-60
2023/03/29 05:24:31;;;;;;;13.82;4.40;;;;;;;;;;4983950;28;20451;-61
2023/03/29 05:26:57;;;;;;;15.02;4.55;;;;;;;;;;4986349;28;20129;-61
2023/03/29 05:29:24;;;;;;;11.25;4.88;;;;;;;;;;4983804;28;20041;-61
2023/03/29 05:31:51;;;;;;;14.00;5.43;;;;;;;;;;4984911;28;20469;-60
2023/03/29 05:34:18;;;;;;;22.73;4.93;;;;;;;;;;4986453;28;20048;-61
2023/03/29 05:36:45;;;;;;;17.23;4.90;;;;;;;;;;4984752;28;20487;-61
2023/03/29 05:39:12;;;;;;;13.05;5.03;;;;;;;;;;4986261;28;20062;-59
2023/03/29 05:41:40;;;;;;;8.98;4.63;;;;;;;;;;4984281;28;20075;-61
2023/03/29 05:44:07;;;;;;;11.68;4.68;;;;;;;;;;4983813;28;20030;-60
2023/03/29 05:46:34;;;;;;;9.57;4.30;;;;;;;;;;4984114;28;20038;-60
2023/03/29 05:49:01;;;;;;;15.70;5.68;;;;;;;;;;4985033;28;20065;-60
2023/03/29 05:51:27;;;;;;;12.32;4.97;;;;;;;;;;4984646;28;20034;-61
2023/03/29 05:53:54;;;;;;;10.13;4.63;;;;;;;;;;4985348;28;20042;-62
2023/03/29 05:56:21;;;;;;;9.38;4.25;;;;;;;;;;4984799;28;20141;-61
2023/03/29 05:58:51;;;;;;;13.23;5.35;;;;;;;;;;4984574;28;20046;-61
2023/03/29 06:01:17;;;;;;;11.80;4.43;;;;;;;;;;4985275;28;20077;-64
2023/03/29 06:03:46;;;;;;;10.20;4.22;;;;;;;;;;4983651;28;20049;-61
2023/03/29 06:06:15;;;;;;;11.43;4.60;;;;;;;;;;4985922;28;20594;-63
2023/03/29 06:08:42;;;;;;;11.70;4.95;;;;;;;;;;4982952;28;20049;-63
2023/03/29 06:11:10;;;;;;;9.40;4.22;;;;;;;;;;4981844;28;20457;-63
2023/03/29 06:13:37;;;;;;;21.67;5.75;;;;;;;;;;4985674;28;20048;-61
2023/03/29 06:16:05;;;;;;;13.10;5.40;;;;;;;;;;4985758;28;20054;-60
2023/03/29 06:18:32;;;;;;;11.82;4.97;;;;;;;;;;4984814;28;20056;-63
2023/03/29 06:21:01;;;;;;;14.52;6.20;;;;;;;;;;4985303;28;20073;-62
2023/03/29 06:23:28;;;;;;;14.23;5.10;;;;;;;;;;4984968;28;20022;-64
2023/03/29 06:25:55;;;;;;;11.60;5.13;;;;;;;;;;4984223;28;20045;-62
2023/03/29 06:28:22;;;;;;;10.93;4.43;;;;;;;;;;4984709;28;20038;-60
2023/03/29 06:30:49;;;;;;;15.60;5.90;;;;;;;;;;4984658;28;20088;-63
2023/03/29 06:33:16;;;;;;;12.10;5.45;;;;;;;;;;4984710;28;20039;-61
2023/03/29 06:35:44;;;;;;;13.98;5.82;;;;;;;;;;4983249;28;20054;-64
2023/03/29 06:38:10;;;;;;;19.13;5.80;;;;;;;;;;4984111;28;20458;-62
2023/03/29 06:40:37;;;;;;;11.55;5.30;;;;;;;;;;4984230;28;20191;-62
2023/03/29 06:43:04;;;;;;;12.50;6.15;;;;;;;;;;4984803;28;20037;-62
2023/03/29 06:45:32;;;;;;;13.57;6.25;;;;;;;;;;4984499;28;20057;-63
2023/03/29 06:47:58;;;;;;;16.48;6.22;;;;;;;;;;4984986;28;20058;-62
2023/03/29 06:50:25;;;;;;;16.98;6.13;;;;;;;;;;4984644;28;20120;-62
2023/03/29 06:52:52;;;;;;;22.67;5.63;;;;;;;;;;4984891;28;20554;-61
2023/03/29 06:55:20;;;;;;;15.60;5.50;;;;;;;;;;4986787;28;20583;-61
2023/03/29 06:57:47;;;;;;;14.70;6.47;;;;;;;;;;4987781;28;20057;-64
2023/03/29 07:00:27;;;;;;;11.98;5.88;;;;;;;;;;4987830;28;20038;-62
2023/03/29 07:02:55;;;;;;;13.27;6.45;;;;;;;;;;4987236;28;20045;-64
2023/03/29 07:05:22;;;;;;;15.55;6.63;;;;;;;;;;4986289;28;20043;-64
2023/03/29 07:07:54;;;;;;;29.58;6.78;;;;;;;;;;4988206;28;20042;-63
2023/03/29 07:10:21;;;;;;;16.52;6.70;;;;;;;;;;4970422;28;20848;-64
2023/03/29 07:12:49;;;;;;;18.23;6.25;;;;;;;;;;4988582;28;20113;-63
2023/03/29 07:15:15;;;;;;;21.88;6.30;;;;;;;;;;4969613;28;20080;-62
2023/03/29 07:17:42;;;;;;;12.93;6.28;;;;;;;;;;4987972;28;20038;-65
2023/03/29 07:20:12;;;;;;;21.08;6.75;;;;;;;;;;4988462;28;20038;-62
2023/03/29 07:22:42;;;;;;;18.95;6.38;;;;;;;;;;4987088;28;20062;-65
2023/03/29 07:25:11;;;;;;;16.88;6.68;;;;;;;;;;4987118;28;20062;-61
2023/03/29 07:27:38;;;;;;;17.27;6.38;;;;;;;;;;4987851;28;20042;-62
2023/03/29 07:30:09;;;;;;;24.38;6.38;;;;;;;;;;4987673;28;20050;-63
2023/03/29 07:32:39;;;;;;;14.85;6.25;;;;;;;;;;4985934;28;20092;-64
2023/03/29 07:35:06;;;;;;;16.52;7.10;;;;;;;;;;4987134;28;20815;-63
2023/03/29 07:37:34;;;;;;;15.57;6.35;;;;;;;;;;4986921;28;20113;-60
2023/03/29 07:40:03;;;;;;;14.52;6.20;;;;;;;;;;4986632;28;20053;-63
2023/03/29 07:42:30;;;;;;;13.98;6.53;;;;;;;;;;4988158;28;20034;-61
2023/03/29 07:44:57;;;;;;;19.40;7.38;;;;;;;;;;4986654;28;20054;-63
2023/03/29 07:47:24;;;;;;;13.10;6.85;;;;;;;;;;4987532;28;20069;-61
2023/03/29 07:49:51;;;;;;;20.63;6.88;;;;;;;;;;4987675;28;21871;-63
2023/03/29 07:52:18;;;;;;;13.48;6.28;;;;;;;;;;4987402;28;20176;-62
2023/03/29 07:54:44;;;;;;;13.30;6.22;;;;;;;;;;4986147;28;20044;-60
2023/03/29 07:57:11;;;;;;;13.48;6.72;;;;;;;;;;4986582;28;20046;-62
2023/03/29 07:59:37;;;;;;;11.30;5.97;;;;;;;;;;4985989;28;20038;-61
2023/03/29 08:02:05;;;;;;;13.73;6.82;;;;;;;;;;4987284;28;20442;-60
2023/03/29 08:04:32;;;;;;;18.38;6.35;;;;;;;;;;4985825;28;20133;-62
2023/03/29 08:06:58;;;;;;;12.85;6.63;;;;;;;;;;4983885;28;20112;-60
2023/03/29 08:09:26;;;;;;;12.40;6.13;;;;;;;;;;4988697;28;20124;-61
2023/03/29 08:11:52;;;;;;;10.52;6.18;;;;;;;;;;4987565;28;20070;-63
2023/03/29 08:14:20;;;;;;;15.95;6.50;;;;;;;;;;4986234;28;20050;-64
2023/03/29 08:16:47;;;;;;;13.07;5.80;;;;;;;;;;4986618;28;20060;-61
2023/03/29 08:19:15;;;;;;;14.00;6.60;;;;;;;;;;4986568;28;20122;-62
2023/03/29 08:21:42;;;;;;;11.23;5.85;;;;;;;;;;4985934;28;20053;-63
2023/03/29 08:24:08;;;;;;;14.45;6.20;;;;;;;;;;4987201;28;20110;-61
2023/03/29 08:26:55;;;;;;;12.18;6.10;;;;;;;;;;4993845;28;20064;-60
2023/03/29 08:29:21;;;;;;;12.60;5.28;;;;;;;;;;4993354;28;20080;-58
2023/03/29 08:31:48;;;;;;;14.93;6.60;;;;;;;;;;4994667;28;20121;-63
2023/03/29 08:34:15;;;;;;;13.95;6.90;;;;;;;;;;4994517;28;20116;-60
2023/03/29 08:36:41;;;;;;;13.02;6.90;;;;;;;;;;4993598;28;20069;-61
2023/03/29 08:39:08;;;;;;;25.00;7.18;;;;;;;;;;4994183;28;20221;-61
2023/03/29 08:41:47;;;;;;;18.25;6.20;;;;;;;;;;4993468;28;21789;-62
2023/03/29 08:44:32;;;;;;;13.13;6.28;;;;;;;;;;4993481;28;20101;-58
2023/03/29 08:47:14;;;;;;;14.55;6.95;;;;;;;;;;4993537;28;20046;-64
2023/03/29 08:49:41;;;;;;;16.15;6.07;;;;;;;;;;4993040;28;20042;-62
2023/03/29 08:52:15;;;;;;;11.55;6.38;;;;;;;;;;4993648;28;20046;-62
2023/03/29 08:54:44;;;;;;;13.35;6.30;;;;;;;;;;4993471;28;20044;-63
2023/03/29 08:57:16;;;;;;;13.63;6.72;;;;;;;;;;4993298;28;20180;-62
2023/03/29 08:59:44;;;;;;;13.20;6.82;;;;;;;;;;4985352;28;20034;-62
2023/03/29 09:02:23;;;;;;;14.00;7.03;;;;;;;;;;4986481;28;20099;-61
2023/03/29 09:04:51;;;;;;;20.85;6.68;;;;;;;;;;4986134;28;20153;-62
2023/03/29 09:07:17;;;;;;;12.93;7.15;;;;;;;;;;4985923;28;20029;-61
2023/03/29 09:09:44;;;;;;;11.68;6.28;;;;;;;;;;4988343;28;20046;-60
2023/03/29 09:12:14;;;;;;;14.70;6.90;;;;;;;;;;4972734;28;20073;-61
2023/03/29 09:14:48;;;;;;;14.57;6.40;;;;;;;;;;4984448;28;20076;-63
2023/03/29 09:17:35;;;;;;;16.05;6.35;;;;;;;;;;4985077;28;20042;-63
2023/03/29 09:20:18;;;;;;;14.43;6.47;;;;;;;;;;4986116;28;20499;-61
2023/03/29 09:22:59;;;;;;;8.55;4.80;;;;;;;;;;4984760;28;20042;-63
2023/03/29 09:25:44;;;;;;;12.95;5.88;;;;;;;;;;4984563;28;20082;-62
2023/03/29 09:28:19;;;;;;;12.45;6.45;;;;;;;;;;4986289;28;20124;-63
2023/03/29 09:30:53;;;;;;;9.77;5.90;;;;;;;;;;4985866;28;20930;-61
2023/03/29 09:33:23;;;;;;;12.10;6.57;;;;;;;;;;4985567;28;20043;-63
2023/03/29 09:36:03;;;;;;;14.27;5.97;;;;;;;;;;4984378;28;20521;-64
2023/03/29 09:38:30;;;;;;;11.35;5.78;;;;;;;;;;4987536;28;20136;-62
2023/03/29 09:41:05;;;;;;;12.02;6.13;;;;;;;;;;4985648;28;20419;-62
2023/03/29 09:43:34;;;;;;;12.23;5.95;;;;;;;;;;4984207;28;20053;-62
2023/03/29 09:46:07;;;;;;;14.85;6.03;;;;;;;;;;4984602;28;20034;-65
2023/03/29 09:48:36;;;;;;;10.00;5.53;;;;;;;;;;4985523;28;20176;-62
2023/03/29 09:51:04;;;;;;;11.25;6.07;;;;;;;;;;4985241;28;20057;-62
2023/03/29 09:53:31;;;;;;;14.95;5.93;;;;;;;;;;4984842;28;20091;-62
2023/03/29 09:56:00;;;;;;;15.60;5.75;;;;;;;;;;4985414;28;20995;-66
2023/03/29 09:58:30;;;;;;;14.98;6.35;;;;;;;;;;4984712;28;20116;-62
2023/03/29 10:00:57;;;;;;;11.25;6.07;;;;;;;;;;4984256;28;20056;-62
2023/03/29 10:03:26;;;;;;;12.07;6.18;;;;;;;;;;4984672;28;20045;-64
2023/03/29 10:05:54;;;;;;;16.05;5.70;;;;;;;;;;4984534;28;20113;-62
2023/03/29 10:08:28;;;;;;;15.90;6.65;;;;;;;;;;4985299;28;20045;-61
2023/03/29 10:10:56;;;;;;;13.32;5.78;;;;;;;;;;4985970;28;20894;-61
2023/03/29 10:13:33;;;;;;;12.00;5.47;;;;;;;;;;4985946;28;20050;-63
2023/03/29 10:16:04;;;;;;;9.02;4.72;;;;;;;;;;4986079;28;20058;-62
2023/03/29 10:18:32;;;;;;;12.02;5.65;;;;;;;;;;4984831;28;20066;-64
2023/03/29 10:21:03;;;;;;;8.57;5.18;;;;;;;;;;4985998;28;20042;-65
2023/03/29 10:23:33;;;;;;;12.52;5.70;;;;;;;;;;4985554;28;20495;-60
2023/03/29 10:26:03;;;;;;;11.75;5.32;;;;;;;;;;4985504;28;20406;-61
2023/03/29 10:28:30;;;;;;;10.98;5.28;;;;;;;;;;4984206;28;20057;-60
2023/03/29 10:30:58;;;;;;;18.38;6.10;;;;;;;;;;4988300;28;20945;-61
2023/03/29 10:33:29;;;;;;;16.27;5.72;;;;;;;;;;4987086;28;20038;-62
2023/03/29 10:35:56;;;;;;;12.70;6.20;;;;;;;;;;4987980;28;20070;-61
2023/03/29 10:38:24;;;;;;;13.52;5.60;;;;;;;;;;4987620;28;20100;-62
2023/03/29 10:40:52;;;;;;;11.52;5.50;;;;;;;;;;4980225;28;20050;-61
2023/03/29 10:43:34;;;;;;;10.75;6.18;;;;;;;;;;4987409;28;20049;-67
2023/03/29 10:46:11;;;;;;;21.40;6.40;;;;;;;;;;4974559;28;20419;-61
2023/03/29 10:48:39;;;;;;;15.73;5.88;;;;;;;;;;4985697;28;21409;-61
2023/03/29 10:51:06;;;;;;;10.90;5.68;;;;;;;;;;4988377;28;20053;-61
2023/03/29 10:53:52;;;;;;;14.73;6.80;;;;;;;;;;4949906;28;20051;-63
2023/03/29 10:56:38;;;;;;;15.02;6.68;;;;;;;;;;4950719;28;20057;-61
2023/03/29 10:59:15;;;;;;;10.13;5.75;;;;;;;;;;4950506;28;20493;-59
2023/03/29 11:01:50;;;;;;;13.15;6.35;;;;;;;;;;4949371;28;20035;-61
2023/03/29 11:04:35;;;;;;;14.30;6.97;;;;;;;;;;4950968;28;20065;-60
2023/03/29 11:07:22;;;;;;;15.52;6.75;;;;;;;;;;4950161;28;20059;-62
2023/03/29 11:10:04;;;;;;;23.65;7.00;;;;;;;;;;4949832;28;20038;-61
2023/03/29 11:12:38;;;;;;;14.98;7.20;;;;;;;;;;4949789;28;20169;-63
2023/03/29 11:15:05;;;;;;;12.82;6.97;;;;;;;;;;4939405;28;20072;-61
2023/03/29 11:17:38;;;;;;;13.35;7.60;;;;;;;;;;4949228;28;20062;-62
2023/03/29 11:20:20;;;;;;;13.07;7.22;;;;;;;;;;4950888;28;20066;-63
2023/03/29 11:22:56;;;;;;;15.48;7.63;;;;;;;;;;4949438;28;20055;-61
2023/03/29 11:25:47;;;;;;;12.45;7.38;;;;;;;;;;4949704;28;20046;-62
2023/03/29 11:28:21;;;;;;;11.88;6.72;;;;;;;;;;4949754;28;20190;-62
2023/03/29 11:30:50;;;;;;;21.63;7.22;;;;;;;;;;4958907;28;20620;-64
2023/03/29 11:33:26;;;;;;;18.73;7.70;;;;;;;;;;4987856;28;20046;-61
2023/03/29 11:36:02;;;;;;;15.30;8.05;;;;;;;;;;4974725;28;20058;-62
2023/03/29 11:38:33;;;;;;;13.65;7.47;;;;;;;;;;4987931;28;20045;-63
2023/03/29 11:40:59;;;;;;;19.52;7.18;;;;;;;;;;4988313;28;21687;-61
2023/03/29 11:43:42;;;;;;;19.08;7.18;;;;;;;;;;4986961;28;20045;-60
2023/03/29 11:46:16;;;;;;;18.20;8.20;;;;;;;;;;4987182;28;20034;-62
2023/03/29 11:48:54;;;;;;;23.00;8.43;;;;;;;;;;4985945;28;20180;-60
2023/03/29 11:51:31;;;;;;;17.88;7.60;;;;;;;;;;4986756;28;20034;-64
2023/03/29 11:54:00;;;;;;;30.70;8.68;;;;;;;;;;4986273;28;20042;-61
2023/03/29 11:56:53;;;;;;;15.75;7.70;;;;;;;;;;4986585;28;20082;-63
2023/03/29 11:59:26;;;;;;;21.38;7.88;;;;;;;;;;4983466;28;20068;-61
2023/03/29 12:01:54;;;;;;;18.50;8.05;;;;;;;;;;4987025;28;20050;-64
2023/03/29 12:04:28;;;;;;;22.85;8.82;;;;;;;;;;4986346;28;20061;-61
2023/03/29 12:07:13;;;;;;;21.58;8.15;;;;;;;;;;4988066;28;20034;-62
2023/03/29 12:09:43;;;;;;;19.33;7.95;;;;;;;;;;4986133;28;20034;-62
2023/03/29 12:12:19;;;;;;;19.15;8.07;;;;;;;;;;4986805;28;20053;-63
2023/03/29 12:14:53;;;;;;;24.63;8.00;;;;;;;;;;4986344;28;20041;-63
2023/03/29 12:17:23;;;;;;;17.42;8.15;;;;;;;;;;4975864;28;20137;-64
2023/03/29 12:20:03;;;;;;;30.00;9.00;;;;;;;;;;4987037;28;20717;-64
2023/03/29 12:22:29;;;;;;;24.17;8.43;;;;;;;;;;4986546;28;20049;-64
2023/03/29 12:24:57;;;;;;;28.48;7.68;;;;;;;;;;4986687;28;20150;-61
2023/03/29 12:27:26;;;;;;;18.08;8.00;;;;;;;;;;4977508;28;20113;-61
2023/03/29 12:30:02;;;;;;;15.85;7.32;;;;;;;;;;4986464;28;20167;-63
2023/03/29 12:32:35;;;;;;;13.23;7.70;;;;;;;;;;4986293;28;20066;-63
2023/03/29 12:35:20;;;;;;;24.00;7.67;;;;;;;;;;4986582;28;20069;-62
2023/03/29 12:37:53;;;;;;;25.92;8.80;;;;;;;;;;4985769;28;20287;-61
2023/03/29 12:40:20;;;;;;;21.33;8.52;;;;;;;;;;4976037;28;20085;-61
2023/03/29 12:43:05;;;;;;;26.83;9.13;;;;;;;;;;4985437;28;20157;-63
2023/03/29 12:45:38;;;;;;;19.15;8.85;;;;;;;;;;4984468;28;20113;-63
2023/03/29 12:48:06;;;;;;;18.52;8.05;;;;;;;;;;4985312;28;20638;-62
2023/03/29 12:50:34;;;;;;;37.03;8.55;;;;;;;;;;4985288;28;20098;-62
2023/03/29 12:53:15;;;;;;;21.65;7.90;;;;;;;;;;4984254;28;20169;-63
2023/03/29 12:55:42;;;;;;;18.17;8.65;;;;;;;;;;4985329;28;20072;-60
2023/03/29 12:58:26;;;;;;;16.95;8.43;;;;;;;;;;4984849;28;20042;-63
2023/03/29 13:01:07;;;;;;;55.38;9.13;;;;;;;;;;4985520;28;20049;-61
2023/03/29 13:03:41;;;;;;;24.33;8.13;;;;;;;;;;4984807;28;20459;-64
2023/03/29 13:06:08;;;;;;;;;;;;;;;;;;4986656;28;20057;-60
2023/03/29 13:08:34;;;;;;;15.10;7.22;;;;;;;;;;4969557;28;19921;-61
2023/03/29 13:11:02;;;;;;;27.30;7.30;;;;;;;;;;4986075;28;20261;-62
2023/03/29 13:13:39;;;;;;;33.55;8.88;;;;;;;;;;4983854;28;20091;-62
2023/03/29 13:16:13;;;;;;;32.50;8.60;;;;;;;;;;4985167;28;20050;-63
2023/03/29 13:18:47;;;;;;;23.02;8.00;;;;;;;;;;4984321;28;20037;-62
2023/03/29 13:21:29;;;;;;;27.17;7.18;;;;;;;;;;4986019;28;20056;-62
2023/03/29 13:24:19;;;;;;;22.73;7.85;;;;;;;;;;4984173;28;20074;-62
2023/03/29 13:26:52;;;;;;;18.45;7.32;;;;;;;;;;4983995;28;20177;-64
2023/03/29 13:29:21;;;;;;;18.90;6.97;;;;;;;;;;4984310;28;20057;-67
2023/03/29 13:32:06;;;;;;;15.88;6.93;;;;;;;;;;4973806;28;20116;-66
2023/03/29 13:34:38;;;;;;;18.25;6.80;;;;;;;;;;4984541;28;20169;-64
2023/03/29 13:37:24;;;;;;;32.95;8.18;;;;;;;;;;4985180;28;20045;-64
2023/03/29 13:39:53;;;;;;;18.05;6.78;;;;;;;;;;4985170;28;20964;-64
2023/03/29 13:42:25;;;;;;;19.75;7.97;;;;;;;;;;4983937;28;20038;-60
2023/03/29 13:44:52;;;;;;;18.25;7.63;;;;;;;;;;4984440;28;20050;-61
2023/03/29 13:47:19;;;;;;;22.80;7.32;;;;;;;;;;4982389;28;20042;-66
2023/03/29 13:50:11;;;;;;;21.90;7.68;;;;;;;;;;4933907;28;20509;-64
2023/03/29 13:52:41;;;;;;;17.02;8.00;;;;;;;;;;4931942;28;20066;-62
2023/03/29 13:55:27;;;;;;;18.70;7.93;;;;;;;;;;4932370;28;20042;-62
2023/03/29 13:57:57;;;;;;;28.42;8.23;;;;;;;;;;4932075;28;20399;-63
2023/03/29 14:00:45;;;;;;;14.75;7.53;;;;;;;;;;4929355;28;20040;-63
2023/03/29 14:03:16;;;;;;;16.25;7.60;;;;;;;;;;4931612;28;20059;-64
2023/03/29 14:05:47;;;;;;;18.83;8.98;;;;;;;;;;4931947;28;20048;-61
2023/03/29 14:08:21;;;;;;;23.23;7.93;;;;;;;;;;4934734;28;20519;-64
2023/03/29 14:10:48;;;;;;;28.05;9.77;;;;;;;;;;4937126;28;20095;-60
2023/03/29 14:13:17;;;;;;;29.60;9.30;;;;;;;;;;4934176;28;20125;-67
2023/03/29 14:15:49;;;;;;;33.22;8.50;;;;;;;;;;4936190;28;20051;-63
2023/03/29 14:18:18;;;;;;;24.17;8.23;;;;;;;;;;4937717;28;20054;-62
2023/03/29 14:20:49;;;;;;;20.30;8.32;;;;;;;;;;4952967;28;20794;-63
2023/03/29 14:23:20;;;;;;;23.85;9.88;;;;;;;;;;4988649;28;20145;-61
2023/03/29 14:25:47;;;;;;;26.13;9.55;;;;;;;;;;4987344;28;20142;-62
2023/03/29 14:28:21;;;;;;;25.63;9.70;;;;;;;;;;4987660;28;20077;-61
2023/03/29 14:30:48;;;;;;;28.30;8.90;;;;;;;;;;4986222;28;20050;-63
2023/03/29 14:33:26;;;;;;;22.55;9.40;;;;;;;;;;4986640;28;20549;-62
2023/03/29 14:35:53;;;;;;;26.40;8.77;;;;;;;;;;4988261;28;20049;-63
2023/03/29 14:38:20;;;;;;;41.95;10.07;;;;;;;;;;4970514;28;20441;-63
2023/03/29 14:40:47;;;;;;;22.60;8.88;;;;;;;;;;4987950;28;20050;-64
2023/03/29 14:43:16;;;;;;;21.05;8.68;;;;;;;;;;4987762;28;20042;-63
2023/03/29 14:45:43;;;;;;;43.50;10.70;;;;;;;;;;4986435;28;20074;-63
2023/03/29 14:48:12;;;;;;;23.55;9.93;;;;;;;;;;4987227;28;20177;-63
2023/03/29 14:50:38;;;;;;;29.45;9.30;;;;;;;;;;4986138;28;20110;-64
2023/03/29 14:53:06;;;;;;;19.83;8.05;;;;;;;;;;4987164;28;20050;-63